sensor_id;sensor_type;location;lat;lon;timestamp;P1;durP1;ratioP1;P2;durP2;ratioP2
23155;SDS011;11746;50.876;4.246;2023-12-28T00:01:58;5.18;;;2.65;;
23155;SDS011;11746;50.876;4.246;2023-12-28T00:04:26;4.57;;;2.55;;
23155;SDS011;11746;50.876;4.246;2023-12-28T00:06:53;4.82;;;2.05;;
23155;SDS011;11746;50.876;4.246;2023-12-28T00:09:18;4.55;;;2.30;;
23155;SDS011;11746;50.876;4.246;2023-12-28T00:11:47;3.83;;;1.88;;
23155;SDS011;11746;50.876;4.246;2023-12-28T00:14:12;3.80;;;2.00;;
23155;SDS011;11746;50.876;4.246;2023-12-28T00:16:38;5.88;;;2.30;;
23155;SDS011;11746;50.876;4.246;2023-12-28T00:19:04;3.17;;;2.00;;
23155;SDS011;11746;50.876;4.246;2023-12-28T00:21:32;4.85;;;2.20;;
23155;SDS011;11746;50.876;4.246;2023-12-28T00:23:57;5.70;;;2.25;;
23155;SDS011;11746;50.876;4.246;2023-12-28T00:26:23;3.15;;;2.08;;
23155;SDS011;11746;50.876;4.246;2023-12-28T00:28:53;4.35;;;2.25;;
23155;SDS011;11746;50.876;4.246;2023-12-28T00:31:22;4.32;;;2.20;;
23155;SDS011;11746;50.876;4.246;2023-12-28T00:33:51;3.95;;;1.90;;
23155;SDS011;11746;50.876;4.246;2023-12-28T00:36:17;4.03;;;2.10;;
23155;SDS011;11746;50.876;4.246;2023-12-28T00:38:45;5.00;;;2.38;;
23155;SDS011;11746;50.876;4.246;2023-12-28T00:41:13;2.92;;;1.83;;
23155;SDS011;11746;50.876;4.246;2023-12-28T00:43:39;3.97;;;2.03;;
23155;SDS011;11746;50.876;4.246;2023-12-28T00:46:04;2.97;;;1.98;;
23155;SDS011;11746;50.876;4.246;2023-12-28T00:48:30;4.18;;;2.30;;
23155;SDS011;11746;50.876;4.246;2023-12-28T00:50:58;6.28;;;2.15;;
23155;SDS011;11746;50.876;4.246;2023-12-28T00:53:28;5.55;;;2.10;;
23155;SDS011;11746;50.876;4.246;2023-12-28T00:55:56;4.13;;;2.00;;
23155;SDS011;11746;50.876;4.246;2023-12-28T00:58:23;4.55;;;2.00;;
23155;SDS011;11746;50.876;4.246;2023-12-28T01:00:49;3.05;;;1.83;;
23155;SDS011;11746;50.876;4.246;2023-12-28T01:03:20;3.42;;;1.80;;
23155;SDS011;11746;50.876;4.246;2023-12-28T01:05:49;7.70;;;2.22;;
23155;SDS011;11746;50.876;4.246;2023-12-28T01:08:17;5.35;;;2.20;;
23155;SDS011;11746;50.876;4.246;2023-12-28T01:10:43;4.93;;;2.50;;
23155;SDS011;11746;50.876;4.246;2023-12-28T01:13:11;3.75;;;1.90;;
23155;SDS011;11746;50.876;4.246;2023-12-28T01:15:38;3.03;;;2.15;;
23155;SDS011;11746;50.876;4.246;2023-12-28T01:18:06;5.32;;;2.30;;
23155;SDS011;11746;50.876;4.246;2023-12-28T01:20:32;3.38;;;2.17;;
23155;SDS011;11746;50.876;4.246;2023-12-28T01:23:00;5.40;;;2.28;;
23155;SDS011;11746;50.876;4.246;2023-12-28T01:25:26;4.57;;;2.20;;
23155;SDS011;11746;50.876;4.246;2023-12-28T01:27:51;4.95;;;2.38;;
23155;SDS011;11746;50.876;4.246;2023-12-28T01:30:20;3.30;;;2.13;;
23155;SDS011;11746;50.876;4.246;2023-12-28T01:32:47;4.90;;;2.17;;
23155;SDS011;11746;50.876;4.246;2023-12-28T01:35:13;3.78;;;1.95;;
23155;SDS011;11746;50.876;4.246;2023-12-28T01:37:39;3.47;;;1.98;;
23155;SDS011;11746;50.876;4.246;2023-12-28T01:40:07;5.10;;;2.05;;
23155;SDS011;11746;50.876;4.246;2023-12-28T01:42:36;7.03;;;2.08;;
23155;SDS011;11746;50.876;4.246;2023-12-28T01:45:02;4.85;;;2.33;;
23155;SDS011;11746;50.876;4.246;2023-12-28T01:47:31;4.50;;;1.80;;
23155;SDS011;11746;50.876;4.246;2023-12-28T01:49:56;3.55;;;1.92;;
23155;SDS011;11746;50.876;4.246;2023-12-28T01:52:27;3.03;;;1.90;;
23155;SDS011;11746;50.876;4.246;2023-12-28T01:54:54;3.90;;;2.10;;
23155;SDS011;11746;50.876;4.246;2023-12-28T01:57:20;3.40;;;1.90;;
23155;SDS011;11746;50.876;4.246;2023-12-28T01:59:46;3.40;;;1.77;;
23155;SDS011;11746;50.876;4.246;2023-12-28T02:02:13;5.05;;;2.17;;
23155;SDS011;11746;50.876;4.246;2023-12-28T02:04:42;4.53;;;1.98;;
23155;SDS011;11746;50.876;4.246;2023-12-28T02:07:09;4.70;;;2.00;;
23155;SDS011;11746;50.876;4.246;2023-12-28T02:09:38;3.50;;;1.92;;
23155;SDS011;11746;50.876;4.246;2023-12-28T02:12:04;5.70;;;2.00;;
23155;SDS011;11746;50.876;4.246;2023-12-28T02:14:30;4.47;;;2.10;;
23155;SDS011;11746;50.876;4.246;2023-12-28T02:19:51;5.10;;;2.10;;
23155;SDS011;11746;50.876;4.246;2023-12-28T02:22:19;3.63;;;2.00;;
23155;SDS011;11746;50.876;4.246;2023-12-28T02:27:24;4.80;;;1.93;;
23155;SDS011;11746;50.876;4.246;2023-12-28T02:29:51;4.57;;;2.10;;
23155;SDS011;11746;50.876;4.246;2023-12-28T02:32:19;4.78;;;2.00;;
23155;SDS011;11746;50.876;4.246;2023-12-28T02:37:22;6.97;;;2.25;;
23155;SDS011;11746;50.876;4.246;2023-12-28T02:39:49;7.53;;;1.90;;
23155;SDS011;11746;50.876;4.246;2023-12-28T02:42:16;6.95;;;2.10;;
23155;SDS011;11746;50.876;4.246;2023-12-28T02:44:42;4.05;;;2.20;;
23155;SDS011;11746;50.876;4.246;2023-12-28T02:47:08;3.83;;;2.25;;
23155;SDS011;11746;50.876;4.246;2023-12-28T02:49:33;5.90;;;2.30;;
23155;SDS011;11746;50.876;4.246;2023-12-28T02:51:59;11.68;;;2.60;;
23155;SDS011;11746;50.876;4.246;2023-12-28T02:54:24;3.08;;;1.88;;
23155;SDS011;11746;50.876;4.246;2023-12-28T02:56:53;4.38;;;2.40;;
23155;SDS011;11746;50.876;4.246;2023-12-28T02:59:21;5.57;;;2.13;;
23155;SDS011;11746;50.876;4.246;2023-12-28T03:01:47;7.07;;;2.75;;
23155;SDS011;11746;50.876;4.246;2023-12-28T03:04:12;4.80;;;2.40;;
23155;SDS011;11746;50.876;4.246;2023-12-28T03:06:38;6.03;;;2.05;;
23155;SDS011;11746;50.876;4.246;2023-12-28T03:09:05;4.00;;;2.15;;
23155;SDS011;11746;50.876;4.246;2023-12-28T03:11:31;4.63;;;1.75;;
23155;SDS011;11746;50.876;4.246;2023-12-28T03:13:57;5.13;;;1.98;;
23155;SDS011;11746;50.876;4.246;2023-12-28T03:16:27;6.78;;;2.05;;
23155;SDS011;11746;50.876;4.246;2023-12-28T03:18:52;6.95;;;2.03;;
23155;SDS011;11746;50.876;4.246;2023-12-28T03:21:18;9.00;;;2.78;;
23155;SDS011;11746;50.876;4.246;2023-12-28T03:23:46;6.28;;;2.17;;
23155;SDS011;11746;50.876;4.246;2023-12-28T03:26:14;8.02;;;2.50;;
23155;SDS011;11746;50.876;4.246;2023-12-28T03:28:44;5.75;;;1.95;;
23155;SDS011;11746;50.876;4.246;2023-12-28T03:31:10;7.90;;;2.40;;
23155;SDS011;11746;50.876;4.246;2023-12-28T03:33:37;6.38;;;2.75;;
23155;SDS011;11746;50.876;4.246;2023-12-28T03:36:03;5.93;;;1.90;;
23155;SDS011;11746;50.876;4.246;2023-12-28T03:38:29;6.47;;;2.08;;
23155;SDS011;11746;50.876;4.246;2023-12-28T03:40:55;7.15;;;1.80;;
23155;SDS011;11746;50.876;4.246;2023-12-28T03:43:20;4.05;;;1.70;;
23155;SDS011;11746;50.876;4.246;2023-12-28T03:45:46;6.45;;;2.00;;
23155;SDS011;11746;50.876;4.246;2023-12-28T03:48:12;5.07;;;1.80;;
23155;SDS011;11746;50.876;4.246;2023-12-28T03:50:37;7.28;;;2.13;;
23155;SDS011;11746;50.876;4.246;2023-12-28T03:53:05;5.38;;;2.40;;
23155;SDS011;11746;50.876;4.246;2023-12-28T03:55:33;4.93;;;1.75;;
23155;SDS011;11746;50.876;4.246;2023-12-28T03:57:59;5.70;;;2.00;;
23155;SDS011;11746;50.876;4.246;2023-12-28T04:00:24;7.43;;;2.22;;
23155;SDS011;11746;50.876;4.246;2023-12-28T04:02:50;7.72;;;1.85;;
23155;SDS011;11746;50.876;4.246;2023-12-28T04:05:18;6.75;;;2.25;;
23155;SDS011;11746;50.876;4.246;2023-12-28T04:07:46;6.95;;;2.08;;
23155;SDS011;11746;50.876;4.246;2023-12-28T04:10:12;9.73;;;2.05;;
23155;SDS011;11746;50.876;4.246;2023-12-28T04:12:40;10.57;;;2.30;;
23155;SDS011;11746;50.876;4.246;2023-12-28T04:15:05;5.88;;;1.77;;
23155;SDS011;11746;50.876;4.246;2023-12-28T04:17:36;5.72;;;1.73;;
23155;SDS011;11746;50.876;4.246;2023-12-28T04:20:01;7.30;;;2.22;;
23155;SDS011;11746;50.876;4.246;2023-12-28T04:22:28;6.00;;;1.80;;
23155;SDS011;11746;50.876;4.246;2023-12-28T04:24:54;7.97;;;2.28;;
23155;SDS011;11746;50.876;4.246;2023-12-28T04:27:19;4.78;;;1.70;;
23155;SDS011;11746;50.876;4.246;2023-12-28T04:29:45;8.10;;;1.90;;
23155;SDS011;11746;50.876;4.246;2023-12-28T04:32:11;5.25;;;1.75;;
23155;SDS011;11746;50.876;4.246;2023-12-28T04:34:39;5.47;;;1.73;;
23155;SDS011;11746;50.876;4.246;2023-12-28T04:37:05;6.20;;;1.70;;
23155;SDS011;11746;50.876;4.246;2023-12-28T04:39:30;8.40;;;1.77;;
23155;SDS011;11746;50.876;4.246;2023-12-28T04:41:56;5.50;;;1.92;;
23155;SDS011;11746;50.876;4.246;2023-12-28T04:44:24;6.75;;;1.85;;
23155;SDS011;11746;50.876;4.246;2023-12-28T04:46:53;8.10;;;2.10;;
23155;SDS011;11746;50.876;4.246;2023-12-28T04:49:18;6.20;;;1.98;;
23155;SDS011;11746;50.876;4.246;2023-12-28T04:51:46;7.75;;;1.92;;
23155;SDS011;11746;50.876;4.246;2023-12-28T04:54:14;7.05;;;1.73;;
23155;SDS011;11746;50.876;4.246;2023-12-28T04:56:40;11.80;;;2.03;;
23155;SDS011;11746;50.876;4.246;2023-12-28T04:59:08;5.80;;;1.48;;
23155;SDS011;11746;50.876;4.246;2023-12-28T05:01:42;7.80;;;1.80;;
23155;SDS011;11746;50.876;4.246;2023-12-28T05:04:11;7.65;;;1.77;;
23155;SDS011;11746;50.876;4.246;2023-12-28T05:06:37;8.45;;;2.08;;
23155;SDS011;11746;50.876;4.246;2023-12-28T05:09:03;8.65;;;1.92;;
23155;SDS011;11746;50.876;4.246;2023-12-28T05:11:31;9.77;;;2.10;;
23155;SDS011;11746;50.876;4.246;2023-12-28T05:13:57;12.25;;;2.25;;
23155;SDS011;11746;50.876;4.246;2023-12-28T05:16:22;8.52;;;1.73;;
23155;SDS011;11746;50.876;4.246;2023-12-28T05:18:50;12.43;;;2.22;;
23155;SDS011;11746;50.876;4.246;2023-12-28T05:21:16;8.35;;;1.63;;
23155;SDS011;11746;50.876;4.246;2023-12-28T05:23:42;10.38;;;1.80;;
23155;SDS011;11746;50.876;4.246;2023-12-28T05:26:07;9.18;;;2.00;;
23155;SDS011;11746;50.876;4.246;2023-12-28T05:28:35;6.47;;;1.63;;
23155;SDS011;11746;50.876;4.246;2023-12-28T05:31:00;6.65;;;1.65;;
23155;SDS011;11746;50.876;4.246;2023-12-28T05:33:26;9.65;;;1.92;;
23155;SDS011;11746;50.876;4.246;2023-12-28T05:35:52;6.75;;;1.45;;
23155;SDS011;11746;50.876;4.246;2023-12-28T05:38:20;8.45;;;1.90;;
23155;SDS011;11746;50.876;4.246;2023-12-28T05:40:46;10.45;;;1.80;;
23155;SDS011;11746;50.876;4.246;2023-12-28T05:43:11;7.82;;;1.90;;
23155;SDS011;11746;50.876;4.246;2023-12-28T05:45:37;13.52;;;2.03;;
23155;SDS011;11746;50.876;4.246;2023-12-28T05:48:02;11.73;;;1.73;;
23155;SDS011;11746;50.876;4.246;2023-12-28T05:50:28;7.90;;;1.75;;
23155;SDS011;11746;50.876;4.246;2023-12-28T05:52:54;8.07;;;1.52;;
23155;SDS011;11746;50.876;4.246;2023-12-28T05:55:24;12.13;;;1.77;;
23155;SDS011;11746;50.876;4.246;2023-12-28T05:57:50;9.15;;;1.83;;
23155;SDS011;11746;50.876;4.246;2023-12-28T06:00:15;9.93;;;2.03;;
23155;SDS011;11746;50.876;4.246;2023-12-28T06:02:41;8.20;;;1.85;;
23155;SDS011;11746;50.876;4.246;2023-12-28T06:05:07;9.68;;;2.30;;
23155;SDS011;11746;50.876;4.246;2023-12-28T06:07:35;14.00;;;2.60;;
23155;SDS011;11746;50.876;4.246;2023-12-28T06:10:01;5.00;;;1.67;;
23155;SDS011;11746;50.876;4.246;2023-12-28T06:12:29;8.68;;;1.60;;
23155;SDS011;11746;50.876;4.246;2023-12-28T06:14:55;6.85;;;1.73;;
23155;SDS011;11746;50.876;4.246;2023-12-28T06:17:23;9.23;;;1.73;;
23155;SDS011;11746;50.876;4.246;2023-12-28T06:19:48;9.00;;;1.80;;
23155;SDS011;11746;50.876;4.246;2023-12-28T06:22:15;8.80;;;1.42;;
23155;SDS011;11746;50.876;4.246;2023-12-28T06:24:42;9.95;;;1.60;;
23155;SDS011;11746;50.876;4.246;2023-12-28T06:27:08;13.45;;;2.13;;
23155;SDS011;11746;50.876;4.246;2023-12-28T06:29:36;9.32;;;1.83;;
23155;SDS011;11746;50.876;4.246;2023-12-28T06:32:01;13.52;;;2.63;;
23155;SDS011;11746;50.876;4.246;2023-12-28T06:34:27;9.25;;;1.60;;
23155;SDS011;11746;50.876;4.246;2023-12-28T06:36:53;12.77;;;2.05;;
23155;SDS011;11746;50.876;4.246;2023-12-28T06:39:18;11.77;;;1.90;;
23155;SDS011;11746;50.876;4.246;2023-12-28T06:41:47;11.43;;;1.80;;
23155;SDS011;11746;50.876;4.246;2023-12-28T06:44:13;11.73;;;1.98;;
23155;SDS011;11746;50.876;4.246;2023-12-28T06:46:41;9.20;;;1.80;;
23155;SDS011;11746;50.876;4.246;2023-12-28T06:49:07;10.20;;;2.13;;
23155;SDS011;11746;50.876;4.246;2023-12-28T06:51:33;6.85;;;2.10;;
23155;SDS011;11746;50.876;4.246;2023-12-28T06:53:58;10.75;;;1.80;;
23155;SDS011;11746;50.876;4.246;2023-12-28T06:56:28;7.25;;;1.73;;
23155;SDS011;11746;50.876;4.246;2023-12-28T06:58:54;9.57;;;1.60;;
23155;SDS011;11746;50.876;4.246;2023-12-28T07:01:20;8.40;;;2.22;;
23155;SDS011;11746;50.876;4.246;2023-12-28T07:03:45;10.25;;;2.13;;
23155;SDS011;11746;50.876;4.246;2023-12-28T07:06:11;7.70;;;1.60;;
23155;SDS011;11746;50.876;4.246;2023-12-28T07:08:39;12.30;;;1.83;;
23155;SDS011;11746;50.876;4.246;2023-12-28T07:11:04;14.13;;;1.98;;
23155;SDS011;11746;50.876;4.246;2023-12-28T07:13:36;13.02;;;1.92;;
23155;SDS011;11746;50.876;4.246;2023-12-28T07:16:02;12.02;;;2.30;;
23155;SDS011;11746;50.876;4.246;2023-12-28T07:18:34;14.73;;;1.83;;
23155;SDS011;11746;50.876;4.246;2023-12-28T07:21:00;13.27;;;2.10;;
23155;SDS011;11746;50.876;4.246;2023-12-28T07:23:28;10.40;;;1.75;;
23155;SDS011;11746;50.876;4.246;2023-12-28T07:25:54;13.48;;;2.75;;
23155;SDS011;11746;50.876;4.246;2023-12-28T07:28:22;11.68;;;2.03;;
23155;SDS011;11746;50.876;4.246;2023-12-28T07:30:50;9.38;;;1.83;;
23155;SDS011;11746;50.876;4.246;2023-12-28T07:33:15;12.05;;;2.35;;
23155;SDS011;11746;50.876;4.246;2023-12-28T07:35:41;15.95;;;2.00;;
23155;SDS011;11746;50.876;4.246;2023-12-28T07:38:07;10.05;;;2.75;;
23155;SDS011;11746;50.876;4.246;2023-12-28T07:40:32;9.52;;;1.98;;
23155;SDS011;11746;50.876;4.246;2023-12-28T07:42:58;7.82;;;1.83;;
23155;SDS011;11746;50.876;4.246;2023-12-28T07:45:24;14.38;;;2.95;;
23155;SDS011;11746;50.876;4.246;2023-12-28T07:47:50;13.52;;;2.63;;
23155;SDS011;11746;50.876;4.246;2023-12-28T07:50:16;12.05;;;1.52;;
23155;SDS011;11746;50.876;4.246;2023-12-28T07:52:45;11.50;;;1.63;;
23155;SDS011;11746;50.876;4.246;2023-12-28T07:55:11;12.05;;;2.28;;
23155;SDS011;11746;50.876;4.246;2023-12-28T07:57:39;11.23;;;1.75;;
23155;SDS011;11746;50.876;4.246;2023-12-28T08:00:06;8.93;;;1.83;;
23155;SDS011;11746;50.876;4.246;2023-12-28T08:02:34;11.02;;;2.00;;
23155;SDS011;11746;50.876;4.246;2023-12-28T08:05:00;8.48;;;1.60;;
23155;SDS011;11746;50.876;4.246;2023-12-28T08:07:28;13.68;;;2.08;;
23155;SDS011;11746;50.876;4.246;2023-12-28T08:09:56;13.48;;;2.15;;
23155;SDS011;11746;50.876;4.246;2023-12-28T08:12:24;12.43;;;1.60;;
23155;SDS011;11746;50.876;4.246;2023-12-28T08:14:52;12.00;;;1.85;;
23155;SDS011;11746;50.876;4.246;2023-12-28T08:17:20;11.80;;;1.92;;
23155;SDS011;11746;50.876;4.246;2023-12-28T08:19:47;10.80;;;1.77;;
23155;SDS011;11746;50.876;4.246;2023-12-28T08:22:13;11.07;;;2.30;;
23155;SDS011;11746;50.876;4.246;2023-12-28T08:24:39;14.05;;;1.95;;
23155;SDS011;11746;50.876;4.246;2023-12-28T08:27:04;10.23;;;1.75;;
23155;SDS011;11746;50.876;4.246;2023-12-28T08:29:32;8.13;;;1.70;;
23155;SDS011;11746;50.876;4.246;2023-12-28T08:32:02;13.55;;;2.00;;
23155;SDS011;11746;50.876;4.246;2023-12-28T08:34:28;11.98;;;1.80;;
23155;SDS011;11746;50.876;4.246;2023-12-28T08:36:54;12.60;;;1.52;;
23155;SDS011;11746;50.876;4.246;2023-12-28T08:39:22;8.60;;;1.90;;
23155;SDS011;11746;50.876;4.246;2023-12-28T08:41:52;15.63;;;2.03;;
23155;SDS011;11746;50.876;4.246;2023-12-28T08:44:18;11.43;;;2.03;;
23155;SDS011;11746;50.876;4.246;2023-12-28T08:46:46;13.70;;;2.05;;
23155;SDS011;11746;50.876;4.246;2023-12-28T08:49:12;11.13;;;1.83;;
23155;SDS011;11746;50.876;4.246;2023-12-28T08:51:38;11.30;;;1.75;;
23155;SDS011;11746;50.876;4.246;2023-12-28T08:54:06;13.55;;;1.75;;
23155;SDS011;11746;50.876;4.246;2023-12-28T08:56:34;11.05;;;1.83;;
23155;SDS011;11746;50.876;4.246;2023-12-28T08:59:02;10.48;;;1.92;;
23155;SDS011;11746;50.876;4.246;2023-12-28T09:01:30;11.10;;;2.15;;
23155;SDS011;11746;50.876;4.246;2023-12-28T09:03:58;10.05;;;1.73;;
23155;SDS011;11746;50.876;4.246;2023-12-28T09:06:24;13.70;;;1.98;;
23155;SDS011;11746;50.876;4.246;2023-12-28T09:08:53;9.38;;;1.88;;
23155;SDS011;11746;50.876;4.246;2023-12-28T09:11:19;8.57;;;1.45;;
23155;SDS011;11746;50.876;4.246;2023-12-28T09:13:47;10.23;;;1.65;;
23155;SDS011;11746;50.876;4.246;2023-12-28T09:16:14;17.20;;;2.70;;
23155;SDS011;11746;50.876;4.246;2023-12-28T09:18:43;11.63;;;1.77;;
23155;SDS011;11746;50.876;4.246;2023-12-28T09:21:09;15.25;;;2.45;;
23155;SDS011;11746;50.876;4.246;2023-12-28T09:23:35;11.02;;;2.38;;
23155;SDS011;11746;50.876;4.246;2023-12-28T09:26:04;10.80;;;2.58;;
23155;SDS011;11746;50.876;4.246;2023-12-28T09:28:32;14.10;;;2.05;;
23155;SDS011;11746;50.876;4.246;2023-12-28T09:31:01;9.27;;;2.10;;
23155;SDS011;11746;50.876;4.246;2023-12-28T09:33:30;17.80;;;2.50;;
23155;SDS011;11746;50.876;4.246;2023-12-28T09:35:58;13.52;;;2.45;;
23155;SDS011;11746;50.876;4.246;2023-12-28T09:38:31;14.73;;;2.70;;
23155;SDS011;11746;50.876;4.246;2023-12-28T09:40:57;14.32;;;3.67;;
23155;SDS011;11746;50.876;4.246;2023-12-28T09:43:37;12.93;;;2.15;;
23155;SDS011;11746;50.876;4.246;2023-12-28T09:46:13;8.75;;;2.00;;
23155;SDS011;11746;50.876;4.246;2023-12-28T09:48:39;13.82;;;2.67;;
23155;SDS011;11746;50.876;4.246;2023-12-28T09:51:07;14.13;;;2.40;;
23155;SDS011;11746;50.876;4.246;2023-12-28T09:53:35;15.10;;;2.15;;
23155;SDS011;11746;50.876;4.246;2023-12-28T09:56:02;9.23;;;2.08;;
23155;SDS011;11746;50.876;4.246;2023-12-28T09:58:30;6.38;;;1.60;;
23155;SDS011;11746;50.876;4.246;2023-12-28T10:01:03;13.20;;;2.70;;
23155;SDS011;11746;50.876;4.246;2023-12-28T10:03:30;9.57;;;2.15;;
23155;SDS011;11746;50.876;4.246;2023-12-28T10:05:58;10.25;;;1.98;;
23155;SDS011;11746;50.876;4.246;2023-12-28T10:08:24;19.48;;;2.65;;
23155;SDS011;11746;50.876;4.246;2023-12-28T10:10:51;14.23;;;2.72;;
23155;SDS011;11746;50.876;4.246;2023-12-28T10:13:20;9.80;;;2.30;;
23155;SDS011;11746;50.876;4.246;2023-12-28T10:15:48;14.00;;;2.10;;
23155;SDS011;11746;50.876;4.246;2023-12-28T10:18:17;16.92;;;2.35;;
23155;SDS011;11746;50.876;4.246;2023-12-28T10:20:49;10.52;;;2.50;;
23155;SDS011;11746;50.876;4.246;2023-12-28T10:23:15;15.38;;;2.22;;
23155;SDS011;11746;50.876;4.246;2023-12-28T10:25:42;14.02;;;2.85;;
23155;SDS011;11746;50.876;4.246;2023-12-28T10:28:10;15.07;;;3.70;;
23155;SDS011;11746;50.876;4.246;2023-12-28T10:30:38;13.48;;;1.67;;
23155;SDS011;11746;50.876;4.246;2023-12-28T10:33:06;13.07;;;2.10;;
23155;SDS011;11746;50.876;4.246;2023-12-28T10:35:32;10.93;;;2.30;;
23155;SDS011;11746;50.876;4.246;2023-12-28T10:38:00;10.63;;;2.03;;
23155;SDS011;11746;50.876;4.246;2023-12-28T10:40:28;16.83;;;2.60;;
23155;SDS011;11746;50.876;4.246;2023-12-28T10:45:29;17.38;;;2.88;;
23155;SDS011;11746;50.876;4.246;2023-12-28T10:50:37;15.30;;;2.78;;
23155;SDS011;11746;50.876;4.246;2023-12-28T10:53:20;10.13;;;1.95;;
23155;SDS011;11746;50.876;4.246;2023-12-28T11:01:37;15.55;;;2.35;;
23155;SDS011;11746;50.876;4.246;2023-12-28T11:06:44;13.68;;;2.17;;
23155;SDS011;11746;50.876;4.246;2023-12-28T11:09:13;13.75;;;2.22;;
23155;SDS011;11746;50.876;4.246;2023-12-28T11:11:41;13.13;;;2.05;;
23155;SDS011;11746;50.876;4.246;2023-12-28T11:14:11;8.90;;;1.88;;
23155;SDS011;11746;50.876;4.246;2023-12-28T11:16:38;16.27;;;2.67;;
23155;SDS011;11746;50.876;4.246;2023-12-28T11:19:10;13.40;;;1.98;;
23155;SDS011;11746;50.876;4.246;2023-12-28T11:21:36;14.25;;;1.75;;
23155;SDS011;11746;50.876;4.246;2023-12-28T11:24:03;11.75;;;2.50;;
23155;SDS011;11746;50.876;4.246;2023-12-28T11:26:30;10.30;;;1.85;;
23155;SDS011;11746;50.876;4.246;2023-12-28T11:29:01;12.23;;;1.80;;
23155;SDS011;11746;50.876;4.246;2023-12-28T11:31:31;11.00;;;1.95;;
23155;SDS011;11746;50.876;4.246;2023-12-28T11:34:04;10.05;;;2.40;;
23155;SDS011;11746;50.876;4.246;2023-12-28T11:36:33;14.82;;;2.67;;
23155;SDS011;11746;50.876;4.246;2023-12-28T11:39:03;14.60;;;2.63;;
23155;SDS011;11746;50.876;4.246;2023-12-28T11:41:35;11.52;;;2.28;;
23155;SDS011;11746;50.876;4.246;2023-12-28T11:44:01;20.63;;;5.82;;
23155;SDS011;11746;50.876;4.246;2023-12-28T11:46:30;15.05;;;3.33;;
23155;SDS011;11746;50.876;4.246;2023-12-28T11:49:09;11.27;;;1.95;;
23155;SDS011;11746;50.876;4.246;2023-12-28T11:51:37;19.13;;;6.35;;
23155;SDS011;11746;50.876;4.246;2023-12-28T11:54:04;15.88;;;2.92;;
23155;SDS011;11746;50.876;4.246;2023-12-28T11:56:32;12.15;;;2.58;;
23155;SDS011;11746;50.876;4.246;2023-12-28T11:58:58;14.27;;;2.70;;
23155;SDS011;11746;50.876;4.246;2023-12-28T12:01:24;11.25;;;2.38;;
23155;SDS011;11746;50.876;4.246;2023-12-28T12:03:50;12.20;;;1.90;;
23155;SDS011;11746;50.876;4.246;2023-12-28T12:06:16;14.77;;;2.40;;
23155;SDS011;11746;50.876;4.246;2023-12-28T12:08:45;9.68;;;1.83;;
23155;SDS011;11746;50.876;4.246;2023-12-28T12:11:12;14.95;;;2.80;;
23155;SDS011;11746;50.876;4.246;2023-12-28T12:13:40;13.40;;;2.03;;
23155;SDS011;11746;50.876;4.246;2023-12-28T12:16:06;14.95;;;2.63;;
23155;SDS011;11746;50.876;4.246;2023-12-28T12:18:35;12.35;;;2.22;;
23155;SDS011;11746;50.876;4.246;2023-12-28T12:21:03;12.75;;;2.58;;
23155;SDS011;11746;50.876;4.246;2023-12-28T12:23:29;14.93;;;3.03;;
23155;SDS011;11746;50.876;4.246;2023-12-28T12:25:59;12.40;;;2.20;;
23155;SDS011;11746;50.876;4.246;2023-12-28T12:28:28;12.02;;;1.98;;
23155;SDS011;11746;50.876;4.246;2023-12-28T12:30:54;13.63;;;2.13;;
23155;SDS011;11746;50.876;4.246;2023-12-28T12:33:23;14.15;;;2.25;;
23155;SDS011;11746;50.876;4.246;2023-12-28T12:35:52;12.45;;;2.80;;
23155;SDS011;11746;50.876;4.246;2023-12-28T12:38:24;14.15;;;2.30;;
23155;SDS011;11746;50.876;4.246;2023-12-28T12:40:51;14.00;;;2.78;;
23155;SDS011;11746;50.876;4.246;2023-12-28T12:43:17;11.38;;;2.53;;
23155;SDS011;11746;50.876;4.246;2023-12-28T12:45:44;14.40;;;1.88;;
23155;SDS011;11746;50.876;4.246;2023-12-28T12:48:11;13.27;;;2.25;;
23155;SDS011;11746;50.876;4.246;2023-12-28T12:50:39;17.65;;;1.90;;
23155;SDS011;11746;50.876;4.246;2023-12-28T12:53:10;10.35;;;2.47;;
23155;SDS011;11746;50.876;4.246;2023-12-28T12:55:36;12.32;;;1.90;;
23155;SDS011;11746;50.876;4.246;2023-12-28T12:58:07;18.83;;;3.13;;
23155;SDS011;11746;50.876;4.246;2023-12-28T13:00:37;11.75;;;2.17;;
23155;SDS011;11746;50.876;4.246;2023-12-28T13:03:07;9.40;;;1.80;;
23155;SDS011;11746;50.876;4.246;2023-12-28T13:05:34;13.90;;;2.30;;
23155;SDS011;11746;50.876;4.246;2023-12-28T13:08:00;9.90;;;1.85;;
23155;SDS011;11746;50.876;4.246;2023-12-28T13:10:26;10.23;;;1.75;;
23155;SDS011;11746;50.876;4.246;2023-12-28T13:12:54;11.75;;;1.80;;
23155;SDS011;11746;50.876;4.246;2023-12-28T13:15:23;12.38;;;2.08;;
23155;SDS011;11746;50.876;4.246;2023-12-28T13:17:48;13.82;;;3.53;;
23155;SDS011;11746;50.876;4.246;2023-12-28T13:20:16;23.20;;;6.15;;
23155;SDS011;11746;50.876;4.246;2023-12-28T13:22:44;13.02;;;2.08;;
23155;SDS011;11746;50.876;4.246;2023-12-28T13:25:12;16.33;;;2.55;;
23155;SDS011;11746;50.876;4.246;2023-12-28T13:27:42;15.48;;;2.97;;
23155;SDS011;11746;50.876;4.246;2023-12-28T13:30:10;14.65;;;3.08;;
23155;SDS011;11746;50.876;4.246;2023-12-28T13:32:37;12.93;;;2.70;;
23155;SDS011;11746;50.876;4.246;2023-12-28T13:35:07;13.65;;;2.85;;
23155;SDS011;11746;50.876;4.246;2023-12-28T13:37:35;15.15;;;2.45;;
23155;SDS011;11746;50.876;4.246;2023-12-28T13:40:03;9.07;;;1.95;;
23155;SDS011;11746;50.876;4.246;2023-12-28T13:42:32;10.40;;;2.20;;
23155;SDS011;11746;50.876;4.246;2023-12-28T13:45:00;12.70;;;1.83;;
23155;SDS011;11746;50.876;4.246;2023-12-28T13:47:29;14.77;;;2.15;;
23155;SDS011;11746;50.876;4.246;2023-12-28T13:50:00;9.23;;;2.17;;
23155;SDS011;11746;50.876;4.246;2023-12-28T13:52:26;13.43;;;1.90;;
23155;SDS011;11746;50.876;4.246;2023-12-28T13:54:52;12.50;;;1.95;;
23155;SDS011;11746;50.876;4.246;2023-12-28T13:57:18;17.60;;;2.10;;
23155;SDS011;11746;50.876;4.246;2023-12-28T13:59:48;12.13;;;2.03;;
23155;SDS011;11746;50.876;4.246;2023-12-28T14:02:16;14.45;;;2.88;;
23155;SDS011;11746;50.876;4.246;2023-12-28T14:04:42;12.35;;;2.00;;
23155;SDS011;11746;50.876;4.246;2023-12-28T14:07:13;16.27;;;2.05;;
23155;SDS011;11746;50.876;4.246;2023-12-28T14:09:38;10.85;;;2.22;;
23155;SDS011;11746;50.876;4.246;2023-12-28T14:12:04;14.75;;;2.42;;
23155;SDS011;11746;50.876;4.246;2023-12-28T14:14:30;12.30;;;2.55;;
23155;SDS011;11746;50.876;4.246;2023-12-28T14:16:58;9.85;;;1.70;;
23155;SDS011;11746;50.876;4.246;2023-12-28T14:19:26;11.88;;;2.15;;
23155;SDS011;11746;50.876;4.246;2023-12-28T14:21:54;13.20;;;1.65;;
23155;SDS011;11746;50.876;4.246;2023-12-28T14:24:25;15.82;;;2.20;;
23155;SDS011;11746;50.876;4.246;2023-12-28T14:26:54;13.57;;;1.88;;
23155;SDS011;11746;50.876;4.246;2023-12-28T14:29:23;8.75;;;1.70;;
23155;SDS011;11746;50.876;4.246;2023-12-28T14:31:52;8.85;;;1.80;;
23155;SDS011;11746;50.876;4.246;2023-12-28T14:34:18;13.73;;;2.00;;
23155;SDS011;11746;50.876;4.246;2023-12-28T14:36:44;10.95;;;1.73;;
23155;SDS011;11746;50.876;4.246;2023-12-28T14:39:14;14.02;;;2.17;;
23155;SDS011;11746;50.876;4.246;2023-12-28T14:41:43;16.02;;;2.20;;
23155;SDS011;11746;50.876;4.246;2023-12-28T14:44:12;14.20;;;2.63;;
23155;SDS011;11746;50.876;4.246;2023-12-28T14:46:37;19.50;;;2.60;;
23155;SDS011;11746;50.876;4.246;2023-12-28T14:49:03;9.90;;;1.52;;
23155;SDS011;11746;50.876;4.246;2023-12-28T14:51:31;12.57;;;2.15;;
23155;SDS011;11746;50.876;4.246;2023-12-28T14:54:01;10.90;;;1.75;;
23155;SDS011;11746;50.876;4.246;2023-12-28T14:56:29;9.35;;;1.70;;
23155;SDS011;11746;50.876;4.246;2023-12-28T14:58:55;11.80;;;1.70;;
23155;SDS011;11746;50.876;4.246;2023-12-28T15:01:20;10.90;;;1.85;;
23155;SDS011;11746;50.876;4.246;2023-12-28T15:03:46;13.05;;;1.75;;